createdAt,value
2022-12-22T00:02:29.000Z,0.90
2022-12-22T00:05:15.308Z,1.30
2022-12-22T00:08:01.785Z,0.80
2022-12-22T00:10:47.644Z,0.70
2022-12-22T00:13:34.508Z,0.63
2022-12-22T00:16:20.478Z,1.13
2022-12-22T00:19:06.384Z,0.80
2022-12-22T00:21:52.704Z,0.68
2022-12-22T00:27:27.557Z,0.90
2022-12-22T00:30:13.714Z,1.13
2022-12-22T00:33:00.022Z,0.88
2022-12-22T00:38:37.620Z,1.27
2022-12-22T00:41:24.871Z,1.00
2022-12-22T00:44:10.726Z,0.98
2022-12-22T00:46:59.516Z,1.05
2022-12-22T00:49:47.531Z,1.15
2022-12-22T00:52:34.967Z,1.30
2022-12-22T00:55:23.225Z,1.00
2022-12-22T00:58:09.114Z,0.90
2022-12-22T01:00:55.321Z,0.80
2022-12-22T01:03:41.779Z,0.77
2022-12-22T01:06:28.609Z,1.00
2022-12-22T01:09:14.864Z,0.90
2022-12-22T01:12:01.077Z,0.93
2022-12-22T01:14:47.384Z,0.90
2022-12-22T01:20:19.488Z,0.70
2022-12-22T01:23:06.528Z,0.70
2022-12-22T01:25:52.375Z,0.75
2022-12-22T01:28:38.668Z,0.65
2022-12-22T01:31:57.224Z,0.50
2022-12-22T01:34:43.750Z,0.50
2022-12-22T01:37:29.821Z,0.45
2022-12-22T01:40:15.742Z,0.43
2022-12-22T01:43:01.741Z,0.50
2022-12-22T01:45:50.861Z,0.30
2022-12-22T01:48:44.061Z,0.60
2022-12-22T01:51:34.838Z,0.30
2022-12-22T01:54:21.435Z,0.80
2022-12-22T01:57:08.585Z,0.40
2022-12-22T01:59:54.564Z,0.35
2022-12-22T02:02:43.353Z,0.43
2022-12-22T02:05:31.660Z,0.60
2022-12-22T02:08:49.912Z,0.70
2022-12-22T02:12:03.154Z,0.70
2022-12-22T02:15:26.018Z,0.63
2022-12-22T02:18:15.492Z,0.70
2022-12-22T02:21:12.645Z,1.00
2022-12-22T02:24:26.146Z,0.82
2022-12-22T02:27:17.350Z,1.00
2022-12-22T02:30:17.113Z,0.85
2022-12-22T02:33:09.493Z,0.70
2022-12-22T02:36:30.119Z,0.63
2022-12-22T02:39:37.664Z,0.80
2022-12-22T02:42:43.677Z,0.55
2022-12-22T02:45:48.084Z,0.57
2022-12-22T02:48:40.876Z,0.60
2022-12-22T02:51:32.917Z,0.52
2022-12-22T02:54:19.722Z,0.50
2022-12-22T02:57:06.406Z,0.60
2022-12-22T02:59:52.585Z,0.50
2022-12-22T03:02:39.317Z,0.47
2022-12-22T03:05:25.389Z,0.60
2022-12-22T03:08:11.379Z,0.43
2022-12-22T03:10:57.527Z,0.70
2022-12-22T03:13:43.677Z,0.60
2022-12-22T03:16:30.139Z,0.70
2022-12-22T03:19:16.200Z,0.52
2022-12-22T03:22:02.190Z,0.70
2022-12-22T03:24:47.993Z,0.75
2022-12-22T03:27:15.600Z,1.00
2022-12-22T03:29:43.012Z,0.85
2022-12-22T03:32:10.574Z,0.80
2022-12-22T03:34:37.993Z,0.75
2022-12-22T03:37:05.518Z,0.90
2022-12-22T03:39:32.964Z,1.00
2022-12-22T03:42:18.854Z,1.27
2022-12-22T03:45:04.914Z,0.70
2022-12-22T03:47:32.778Z,1.20
2022-12-22T03:50:00.189Z,0.80
2022-12-22T03:52:27.665Z,0.90
2022-12-22T03:54:55.157Z,1.33
2022-12-22T03:57:22.709Z,0.90
2022-12-22T03:59:50.119Z,1.10
2022-12-22T04:02:17.691Z,0.70
2022-12-22T04:04:45.140Z,0.90
2022-12-22T04:07:12.639Z,1.00
2022-12-22T04:10:00.038Z,0.80
2022-12-22T04:12:46.232Z,1.02
2022-12-22T04:15:13.783Z,0.63
2022-12-22T04:17:41.204Z,0.70
2022-12-22T04:20:09.250Z,0.50
2022-12-22T04:22:36.765Z,0.43
2022-12-22T04:25:04.881Z,0.40
2022-12-22T04:27:32.329Z,0.50
2022-12-22T04:29:59.902Z,0.68
2022-12-22T04:32:27.731Z,0.57
2022-12-22T04:34:55.475Z,0.50
2022-12-22T04:37:22.824Z,0.40
2022-12-22T04:39:50.345Z,0.43
2022-12-22T04:42:17.835Z,0.40
2022-12-22T04:44:45.362Z,0.30
2022-12-22T04:47:13.191Z,0.57
2022-12-22T04:49:40.716Z,0.28
2022-12-22T04:52:08.391Z,0.50
2022-12-22T04:54:35.945Z,0.20
2022-12-22T04:57:03.560Z,0.47
2022-12-22T04:59:31.070Z,0.30
2022-12-22T05:01:58.723Z,0.40
2022-12-22T05:04:26.383Z,0.75
2022-12-22T05:06:53.838Z,0.30
2022-12-22T05:09:21.378Z,0.40
2022-12-22T05:11:48.756Z,0.43
2022-12-22T05:14:16.252Z,0.52
2022-12-22T05:16:43.781Z,0.40
2022-12-22T05:19:11.320Z,0.40
2022-12-22T05:21:38.812Z,0.63
2022-12-22T05:24:07.621Z,0.40
2022-12-22T05:26:35.072Z,0.40
2022-12-22T05:29:02.585Z,0.50
2022-12-22T05:31:30.255Z,0.38
2022-12-22T05:33:57.866Z,0.30
2022-12-22T05:36:25.334Z,0.40
2022-12-22T05:38:52.822Z,0.40
2022-12-22T05:41:20.390Z,0.50
2022-12-22T05:43:47.943Z,0.32
2022-12-22T05:46:15.548Z,0.30
2022-12-22T05:48:42.993Z,0.30
2022-12-22T05:51:10.748Z,0.43
2022-12-22T05:53:38.617Z,0.30
2022-12-22T05:56:07.186Z,0.30
2022-12-22T05:58:35.663Z,0.40
2022-12-22T06:01:03.313Z,0.55
2022-12-22T06:03:31.503Z,0.60
2022-12-22T06:05:59.152Z,0.50
2022-12-22T06:08:27.479Z,0.50
2022-12-22T06:10:57.057Z,0.43
2022-12-22T06:13:25.515Z,0.80
2022-12-22T06:15:53.282Z,0.50
2022-12-22T06:18:20.958Z,0.50
2022-12-22T06:20:50.812Z,0.50
2022-12-22T06:23:18.296Z,0.50
2022-12-22T06:25:54.848Z,0.40
2022-12-22T06:28:22.374Z,0.40
2022-12-22T06:30:49.982Z,0.40
2022-12-22T06:33:17.467Z,0.40
2022-12-22T06:35:44.973Z,0.40
2022-12-22T06:38:12.585Z,0.40
2022-12-22T06:40:40.046Z,0.45
2022-12-22T06:43:10.042Z,0.60
2022-12-22T06:45:42.716Z,0.40
2022-12-22T06:48:12.783Z,0.50
2022-12-22T06:50:40.996Z,0.30
2022-12-22T06:53:09.319Z,0.50
2022-12-22T06:55:37.703Z,0.60
2022-12-22T06:58:05.781Z,0.75
2022-12-22T07:00:33.759Z,0.60
2022-12-22T07:03:01.594Z,0.50
2022-12-22T07:05:31.757Z,0.57
2022-12-22T07:08:05.891Z,0.70
2022-12-22T07:10:54.547Z,0.80
2022-12-22T07:13:24.017Z,0.57
2022-12-22T07:16:00.251Z,0.50
2022-12-22T07:18:30.941Z,0.70
2022-12-22T07:21:01.496Z,0.63
2022-12-22T07:23:29.679Z,0.38
2022-12-22T07:28:25.079Z,0.60
2022-12-22T07:30:54.004Z,0.50
2022-12-22T07:33:22.096Z,0.47
2022-12-22T07:35:52.726Z,0.77
2022-12-22T07:38:20.241Z,0.50
2022-12-22T07:40:51.906Z,0.55
2022-12-22T07:43:20.157Z,1.30
2022-12-22T07:45:47.817Z,0.57
2022-12-22T07:48:34.275Z,0.90
2022-12-22T07:51:04.787Z,0.80
2022-12-22T07:53:34.358Z,1.10
2022-12-22T07:56:04.092Z,1.20
2022-12-22T07:58:32.006Z,1.38
2022-12-22T08:01:00.779Z,1.10
2022-12-22T08:03:28.775Z,1.08
2022-12-22T08:05:56.359Z,0.90
2022-12-22T08:08:23.845Z,1.60
2022-12-22T08:10:51.480Z,1.40
2022-12-22T08:13:20.432Z,1.02
2022-12-22T08:15:48.133Z,0.80
2022-12-22T08:18:15.700Z,1.05
2022-12-22T08:20:51.979Z,0.80
2022-12-22T08:23:19.663Z,1.50
2022-12-22T08:25:51.772Z,1.67
2022-12-22T08:28:19.559Z,3.28
2022-12-22T08:30:48.356Z,1.50
2022-12-22T08:33:16.010Z,1.85
2022-12-22T08:35:43.903Z,1.25
2022-12-22T08:38:13.325Z,1.48
2022-12-22T08:40:43.599Z,1.30
2022-12-22T08:43:12.188Z,1.30
2022-12-22T08:45:40.389Z,1.33
2022-12-22T08:48:07.849Z,0.88
2022-12-22T08:50:35.626Z,0.98
2022-12-22T08:53:23.449Z,1.52
2022-12-22T08:55:56.518Z,1.00
2022-12-22T08:58:24.051Z,1.98
2022-12-22T09:00:52.016Z,1.05
2022-12-22T09:03:19.646Z,1.30
2022-12-22T09:05:47.369Z,1.30
2022-12-22T09:08:14.901Z,1.10
2022-12-22T09:10:44.114Z,1.20
2022-12-22T09:13:11.680Z,1.00
2022-12-22T09:15:39.265Z,1.23
2022-12-22T09:18:06.750Z,1.00
2022-12-22T09:20:34.238Z,0.95
2022-12-22T09:23:01.736Z,1.10
2022-12-22T09:25:29.281Z,1.05
2022-12-22T09:27:56.795Z,1.45
2022-12-22T09:30:24.343Z,1.00
2022-12-22T09:32:52.185Z,1.25
2022-12-22T09:35:19.782Z,1.02
2022-12-22T09:37:48.683Z,1.00
2022-12-22T09:40:16.292Z,1.30
2022-12-22T09:42:43.790Z,0.98
2022-12-22T09:45:20.240Z,1.17
2022-12-22T09:47:53.686Z,1.10
2022-12-22T09:50:24.249Z,1.08
2022-12-22T09:53:06.535Z,1.40
2022-12-22T09:55:44.028Z,1.20
2022-12-22T09:58:27.128Z,1.33
2022-12-22T10:01:17.418Z,0.80
2022-12-22T10:04:00.097Z,1.30
2022-12-22T10:06:43.509Z,1.33
2022-12-22T10:12:18.344Z,1.10
2022-12-22T10:14:50.973Z,1.40
2022-12-22T10:17:20.286Z,0.90
2022-12-22T10:19:49.619Z,1.20
2022-12-22T10:22:29.984Z,1.30
2022-12-22T10:25:01.291Z,1.40
2022-12-22T10:27:32.274Z,1.45
2022-12-22T10:30:23.450Z,1.02
2022-12-22T10:33:03.809Z,1.10
2022-12-22T10:35:57.172Z,1.40
2022-12-22T10:38:31.587Z,1.05
2022-12-22T10:41:03.959Z,1.27
2022-12-22T10:43:36.131Z,1.45
2022-12-22T10:46:04.483Z,1.40
2022-12-22T10:48:38.417Z,1.50
2022-12-22T10:51:08.536Z,1.13
2022-12-22T10:53:53.817Z,1.17
2022-12-22T10:56:24.643Z,1.60
2022-12-22T10:59:17.200Z,1.30
2022-12-22T11:01:44.845Z,1.10
2022-12-22T11:04:27.834Z,1.30
2022-12-22T11:06:58.556Z,1.17
2022-12-22T11:09:35.262Z,1.00
2022-12-22T11:12:08.930Z,1.00
2022-12-22T11:15:03.680Z,1.40
2022-12-22T11:17:46.131Z,1.10
2022-12-22T11:20:32.502Z,1.25
2022-12-22T11:23:08.483Z,1.20
2022-12-22T11:29:14.328Z,1.75
2022-12-22T11:32:07.548Z,1.00
2022-12-22T11:34:53.924Z,1.30
2022-12-22T11:39:59.601Z,1.30
2022-12-22T11:42:52.978Z,1.25
2022-12-22T11:45:37.629Z,1.30
2022-12-22T11:48:23.268Z,0.88
2022-12-22T11:51:01.727Z,1.27
2022-12-22T11:54:11.874Z,1.30
2022-12-22T11:56:42.838Z,1.20
2022-12-22T11:59:35.347Z,1.35
2022-12-22T12:02:12.240Z,1.15
2022-12-22T12:04:48.893Z,1.20
2022-12-22T12:07:20.502Z,1.35
2022-12-22T12:10:15.986Z,1.40
2022-12-22T12:12:49.972Z,1.35
2022-12-22T12:15:38.073Z,1.50
2022-12-22T12:18:32.641Z,1.83
2022-12-22T12:21:26.574Z,1.63
2022-12-22T12:24:16.991Z,1.35
2022-12-22T12:27:08.269Z,1.58
2022-12-22T12:29:42.577Z,1.52
2022-12-22T12:32:10.162Z,1.30
2022-12-22T12:34:43.079Z,1.10
2022-12-22T12:37:26.382Z,1.15
2022-12-22T12:40:36.623Z,1.60
2022-12-22T12:43:04.697Z,1.77
2022-12-22T12:45:35.268Z,1.10
2022-12-22T12:48:20.543Z,1.38
2022-12-22T12:50:47.993Z,1.25
2022-12-22T12:53:17.136Z,1.48
2022-12-22T12:55:54.982Z,1.17
2022-12-22T12:58:37.817Z,1.33
2022-12-22T13:01:29.400Z,1.92
2022-12-22T13:04:05.481Z,1.23
2022-12-22T13:06:53.420Z,1.77
2022-12-22T13:12:33.283Z,1.60
2022-12-22T13:15:02.122Z,1.35
2022-12-22T13:17:41.646Z,1.40
2022-12-22T13:20:16.530Z,1.20
2022-12-22T13:22:45.687Z,1.08
2022-12-22T13:25:16.825Z,0.70
2022-12-22T13:27:44.490Z,1.17
2022-12-22T13:30:17.689Z,1.10
2022-12-22T13:32:50.274Z,1.08
2022-12-22T13:35:32.068Z,1.70
2022-12-22T13:38:01.633Z,1.83
2022-12-22T13:40:43.532Z,1.65
2022-12-22T13:43:16.666Z,1.30
2022-12-22T13:45:49.450Z,1.70
2022-12-22T13:48:22.570Z,1.80
2022-12-22T13:50:52.592Z,1.10
2022-12-22T13:56:32.728Z,1.75
2022-12-22T13:59:02.169Z,1.65
2022-12-22T14:01:30.037Z,2.13
2022-12-22T14:04:07.730Z,2.53
2022-12-22T14:06:40.630Z,2.30
2022-12-22T14:09:25.858Z,2.60
2022-12-22T14:12:00.876Z,2.15
2022-12-22T14:14:40.946Z,2.03
2022-12-22T14:17:34.013Z,2.22
2022-12-22T14:20:12.621Z,1.80
2022-12-22T14:22:46.327Z,2.22
2022-12-22T14:25:21.738Z,2.38
2022-12-22T14:27:52.971Z,1.90
2022-12-22T14:30:23.597Z,2.03
2022-12-22T14:32:55.976Z,1.77
2022-12-22T14:35:27.650Z,1.85
2022-12-22T14:38:13.822Z,2.35
2022-12-22T14:40:43.245Z,2.08
2022-12-22T14:43:19.479Z,2.10
2022-12-22T14:45:49.252Z,1.77
2022-12-22T14:48:23.537Z,2.30
2022-12-22T14:50:52.776Z,2.60
2022-12-22T14:53:45.406Z,1.58
2022-12-22T14:56:14.708Z,1.90
2022-12-22T14:58:44.258Z,2.33
2022-12-22T15:01:28.603Z,1.77
2022-12-22T15:04:20.258Z,2.08
2022-12-22T15:06:49.044Z,2.50
2022-12-22T15:09:16.515Z,2.58
2022-12-22T15:12:08.998Z,2.60
2022-12-22T15:14:39.074Z,2.55
2022-12-22T15:17:16.793Z,1.92
2022-12-22T15:19:44.340Z,2.00
2022-12-22T15:22:12.639Z,2.28
2022-12-22T15:24:40.472Z,1.50
2022-12-22T15:27:08.307Z,1.98
2022-12-22T15:29:35.802Z,1.80
2022-12-22T15:32:03.326Z,2.28
2022-12-22T15:34:32.264Z,2.25
2022-12-22T15:36:59.847Z,2.67
2022-12-22T15:39:27.346Z,1.95
2022-12-22T15:41:54.916Z,1.75
2022-12-22T15:44:22.639Z,2.05
2022-12-22T15:46:56.477Z,2.53
2022-12-22T15:49:27.136Z,1.77
2022-12-22T15:51:58.834Z,2.20
2022-12-22T15:54:28.036Z,2.10
2022-12-22T15:56:55.941Z,2.10
2022-12-22T15:59:26.075Z,1.80
2022-12-22T16:02:00.562Z,1.92
2022-12-22T16:04:29.733Z,2.65
2022-12-22T16:06:58.893Z,1.33
2022-12-22T16:09:31.351Z,1.90
2022-12-22T16:11:59.123Z,1.30
2022-12-22T16:14:26.871Z,1.20
2022-12-22T16:16:54.450Z,2.28
2022-12-22T16:19:22.042Z,1.67
2022-12-22T16:21:53.239Z,1.35
2022-12-22T16:24:31.121Z,2.20
2022-12-22T16:26:59.165Z,1.50
2022-12-22T16:29:27.420Z,1.60
2022-12-22T16:32:22.781Z,1.40
2022-12-22T16:34:50.304Z,1.50
2022-12-22T16:37:17.889Z,1.65
2022-12-22T16:39:46.069Z,2.05
2022-12-22T16:45:03.135Z,1.77
2022-12-22T16:47:36.298Z,2.15
2022-12-22T16:50:06.360Z,2.35
2022-12-22T16:52:40.240Z,2.40
2022-12-22T16:55:18.212Z,2.30
2022-12-22T16:57:45.833Z,2.17
2022-12-22T17:00:36.036Z,1.73
2022-12-22T17:03:17.232Z,5.90
2022-12-22T17:05:48.445Z,1.90
2022-12-22T17:08:32.049Z,2.42
2022-12-22T17:11:09.847Z,1.80
2022-12-22T17:13:39.324Z,1.35
2022-12-22T17:16:07.055Z,1.35
2022-12-22T17:18:35.290Z,2.13
2022-12-22T17:21:04.267Z,2.10
2022-12-22T17:23:38.101Z,1.95
2022-12-22T17:26:11.794Z,1.67
2022-12-22T17:28:40.157Z,2.00
2022-12-22T17:31:07.777Z,1.70
2022-12-22T17:33:35.230Z,3.00
2022-12-22T17:36:02.887Z,1.90
2022-12-22T17:38:30.506Z,1.70
2022-12-22T17:40:58.014Z,1.65
2022-12-22T17:43:25.536Z,1.42
2022-12-22T17:45:54.103Z,1.80
2022-12-22T17:48:21.617Z,1.75
2022-12-22T17:50:50.004Z,2.05
2022-12-22T17:53:19.772Z,2.22
2022-12-22T17:58:36.036Z,3.00
2022-12-22T18:01:03.531Z,2.30
2022-12-22T18:03:31.242Z,2.13
2022-12-22T18:05:59.659Z,1.80
2022-12-22T18:08:27.147Z,1.67
2022-12-22T18:10:54.928Z,2.17
2022-12-22T18:13:26.888Z,1.77
2022-12-22T18:15:55.946Z,1.60
2022-12-22T18:18:23.617Z,2.20
2022-12-22T18:21:06.108Z,1.70
2022-12-22T18:23:37.445Z,1.83
2022-12-22T18:26:08.342Z,2.03
2022-12-22T18:28:36.754Z,1.40
2022-12-22T18:31:04.289Z,1.10
2022-12-22T18:33:31.886Z,1.45
2022-12-22T18:35:59.814Z,2.15
2022-12-22T18:38:31.012Z,1.60
2022-12-22T18:40:58.665Z,1.88
2022-12-22T18:43:26.478Z,1.40
2022-12-22T18:45:54.043Z,1.75
2022-12-22T18:48:21.483Z,2.00
2022-12-22T18:50:49.016Z,1.92
2022-12-22T18:53:27.105Z,1.80
2022-12-22T18:55:55.398Z,2.40
2022-12-22T18:58:24.007Z,2.00
2022-12-22T19:00:53.560Z,1.58
2022-12-22T19:03:29.393Z,1.40
2022-12-22T19:08:27.302Z,1.42
2022-12-22T19:11:00.395Z,1.50
2022-12-22T19:13:32.272Z,1.92
2022-12-22T19:16:00.065Z,1.80
2022-12-22T19:18:28.045Z,1.13
2022-12-22T19:20:56.230Z,1.35
2022-12-22T19:23:25.457Z,1.35
2022-12-22T19:26:07.783Z,1.48
2022-12-22T19:28:42.576Z,1.70
2022-12-22T19:31:20.579Z,1.35
2022-12-22T19:33:48.294Z,1.70
2022-12-22T19:36:22.179Z,1.70
2022-12-22T19:38:51.089Z,1.60
2022-12-22T19:41:27.808Z,1.50
2022-12-22T19:43:55.720Z,1.88
2022-12-22T19:46:25.969Z,2.13
2022-12-22T19:48:53.608Z,1.30
2022-12-22T19:51:21.075Z,2.17
2022-12-22T19:53:48.689Z,2.40
2022-12-22T19:56:25.815Z,1.92
2022-12-22T19:58:55.162Z,2.25
2022-12-22T20:01:22.773Z,2.10
2022-12-22T20:03:50.381Z,2.45
2022-12-22T20:06:18.132Z,1.77
2022-12-22T20:08:45.614Z,1.90
2022-12-22T20:11:15.669Z,1.90
2022-12-22T20:13:43.787Z,1.92
2022-12-22T20:16:16.378Z,2.10
2022-12-22T20:18:46.335Z,2.20
2022-12-22T20:21:21.329Z,2.10
2022-12-22T20:23:50.465Z,2.17
2022-12-22T20:26:24.974Z,2.90
2022-12-22T20:28:53.778Z,2.20
2022-12-22T20:31:23.124Z,3.00
2022-12-22T20:33:51.848Z,2.10
2022-12-22T20:36:24.222Z,2.08
2022-12-22T20:38:53.371Z,3.00
2022-12-22T20:41:21.998Z,2.42
2022-12-22T20:43:49.984Z,2.63
2022-12-22T20:46:22.739Z,3.13
2022-12-22T20:48:54.556Z,2.20
2022-12-22T20:51:25.454Z,3.22
2022-12-22T20:53:54.521Z,2.72
2022-12-22T20:56:28.209Z,2.30
2022-12-22T20:58:56.400Z,2.20
2022-12-22T21:01:24.150Z,2.08
2022-12-22T21:03:51.779Z,2.28
2022-12-22T21:06:29.107Z,1.60
2022-12-22T21:08:58.849Z,2.20
2022-12-22T21:11:27.044Z,1.40
2022-12-22T21:13:56.445Z,1.83
2022-12-22T21:16:26.737Z,2.00
2022-12-22T21:18:55.200Z,1.80
2022-12-22T21:21:23.416Z,2.72
2022-12-22T21:23:50.957Z,1.70
2022-12-22T21:26:35.114Z,2.15
2022-12-22T21:29:07.965Z,2.22
2022-12-22T21:31:35.481Z,2.08
2022-12-22T21:34:02.872Z,1.65
2022-12-22T21:36:33.869Z,1.85
2022-12-22T21:39:12.177Z,1.95
2022-12-22T21:41:58.128Z,1.65
2022-12-22T21:44:26.099Z,1.67
2022-12-22T21:46:54.228Z,3.17
2022-12-22T21:49:25.353Z,1.95
2022-12-22T21:51:53.704Z,1.30
2022-12-22T21:54:23.487Z,1.58
2022-12-22T21:56:51.877Z,1.33
2022-12-22T21:59:19.725Z,3.17
2022-12-22T22:01:47.806Z,1.63
2022-12-22T22:04:15.815Z,1.35
2022-12-22T22:06:43.299Z,1.92
2022-12-22T22:09:12.726Z,1.70
2022-12-22T22:11:59.148Z,1.30
2022-12-22T22:16:54.810Z,1.40
2022-12-22T22:19:22.504Z,1.52
2022-12-22T22:21:50.059Z,1.13
2022-12-22T22:24:17.606Z,1.45
2022-12-22T22:26:46.453Z,1.30
2022-12-22T22:29:14.041Z,0.95
2022-12-22T22:31:41.673Z,1.00
2022-12-22T22:34:09.306Z,1.48
2022-12-22T22:36:36.793Z,1.00
2022-12-22T22:39:04.373Z,0.90
2022-12-22T22:41:39.135Z,0.90
2022-12-22T22:44:10.423Z,1.13
2022-12-22T22:46:37.910Z,1.00
2022-12-22T22:49:05.531Z,1.10
2022-12-22T22:51:33.888Z,1.15
2022-12-22T22:54:01.402Z,1.23
2022-12-22T22:56:28.922Z,0.98
2022-12-22T22:58:56.405Z,1.25
2022-12-22T23:01:23.835Z,1.98
2022-12-22T23:03:51.378Z,1.00
2022-12-22T23:06:20.042Z,1.30
2022-12-22T23:08:50.737Z,1.30
2022-12-22T23:11:18.310Z,1.50
2022-12-22T23:13:46.023Z,1.50
2022-12-22T23:16:13.735Z,1.65
2022-12-22T23:18:41.343Z,1.30
2022-12-22T23:21:09.766Z,1.92
2022-12-22T23:23:37.553Z,1.27
2022-12-22T23:26:06.084Z,1.40
2022-12-22T23:28:34.208Z,1.20
2022-12-22T23:31:02.291Z,1.80
2022-12-22T23:33:31.982Z,1.42
2022-12-22T23:35:59.712Z,1.75
2022-12-22T23:38:27.324Z,1.40
2022-12-22T23:41:02.463Z,1.73
2022-12-22T23:43:30.192Z,1.50
2022-12-22T23:45:57.730Z,1.50
2022-12-22T23:48:25.588Z,1.58
2022-12-22T23:50:53.524Z,1.90
2022-12-22T23:53:21.117Z,1.60
2022-12-22T23:55:49.051Z,1.50
2022-12-22T23:58:17.419Z,1.35
